Time;durP1;ratioP1;P1;durP2;ratioP2;P2;SDS_P1;SDS_P2;PMS_P1;PMS_P2;Temp;Humidity;BMP_temperature;BMP_pressure;BME280_temperature;BME280_humidity;BME280_pressure;Samples;Min_cycle;Max_cycle;Signal;HPM_P1;HPM_P2
2022/03/05 00:00:20;;;;;;;25.40;15.33;;;;;;;;;;4822975;29;20054;-88
2022/03/05 00:02:46;;;;;;;27.10;15.90;;;0.60;99.90;;;;;;4824876;29;20089;-88
2022/03/05 00:05:16;;;;;;;31.80;15.97;;;0.60;99.90;;;;;;4808735;29;20058;-88
2022/03/05 00:07:41;;;;;;;25.67;15.80;;;0.60;99.90;;;;;;4808841;29;20469;-88
2022/03/05 00:10:09;;;;;;;26.90;16.13;;;0.50;99.90;;;;;;4808448;29;20175;-88
2022/03/05 00:12:35;;;;;;;26.25;15.05;;;0.50;99.90;;;;;;4808487;29;20396;-88
2022/03/05 00:15:01;;;;;;;27.83;15.53;;;-0.70;99.90;;;;;;4793176;29;20046;-88
2022/03/05 00:17:27;;;;;;;26.00;15.60;;;-0.30;99.90;;;;;;4823907;29;20085;-88
2022/03/05 00:19:54;;;;;;;26.33;15.47;;;0.00;99.90;;;;;;4809042;29;20134;-88
2022/03/05 00:22:20;;;;;;;28.93;15.63;;;1.80;99.90;;;;;;4793288;29;20150;-88
2022/03/05 00:24:46;;;;;;;28.63;16.30;;;2.00;99.90;;;;;;4808762;29;20304;-90
2022/03/05 00:27:11;;;;;;;27.73;16.67;;;2.50;99.90;;;;;;4825238;29;20047;-89
2022/03/05 00:29:37;;;;;;;30.10;16.43;;;0.30;99.90;;;;;;4823655;29;20118;-89
2022/03/05 00:32:10;;;;;;;28.57;15.87;;;2.50;99.90;;;;;;4825483;29;20055;-90
2022/03/05 00:34:36;;;;;;;29.27;16.40;;;1.90;99.90;;;;;;4808562;29;20055;-89
2022/03/05 00:37:05;;;;;;;29.30;16.47;;;0.20;99.90;;;;;;4808937;29;20134;-89
2022/03/05 00:39:31;;;;;;;27.83;16.10;;;0.50;99.90;;;;;;4825424;29;20057;-89
2022/03/05 00:41:57;;;;;;;30.17;16.87;;;0.30;99.90;;;;;;4823515;29;20082;-90
2022/03/05 00:44:23;;;;;;;31.00;16.47;;;2.40;99.90;;;;;;4824863;29;20457;-90
2022/03/05 00:46:48;;;;;;;28.57;16.07;;;3.10;99.90;;;;;;4823525;29;20086;-90
2022/03/05 00:49:14;;;;;;;25.17;15.07;;;2.10;99.90;;;;;;4824922;29;20058;-89
2022/03/05 00:51:40;;;;;;;27.40;14.40;;;0.50;99.90;;;;;;4793238;29;20061;-89
2022/03/05 00:54:06;;;;;;;29.53;15.47;;;0.30;99.90;;;;;;4808335;29;20054;-89
2022/03/05 00:56:32;;;;;;;26.50;16.03;;;2.60;99.90;;;;;;4793049;29;20123;-89
2022/03/05 00:58:57;;;;;;;30.30;15.83;;;3.30;99.90;;;;;;4822884;29;20352;-89
2022/03/05 01:01:23;;;;;;;26.80;15.07;;;1.80;99.90;;;;;;4807357;29;20042;-90
2022/03/05 01:03:49;;;;;;;32.10;15.80;;;0.00;99.90;;;;;;4822910;29;20498;-90
2022/03/05 01:06:15;;;;;;;28.87;15.33;;;2.60;99.90;;;;;;4808018;29;20065;-90
2022/03/05 01:08:40;;;;;;;28.83;15.30;;;0.80;99.90;;;;;;4822675;29;20285;-90
2022/03/05 01:11:08;;;;;;;28.40;14.93;;;0.90;99.90;;;;;;4807691;29;20102;-89
2022/03/05 01:13:35;;;;;;;;;;;3.40;99.90;;;;;;4807855;29;20060;-89
2022/03/05 01:16:01;;;;;;;32.27;15.43;;;-1.60;99.90;;;;;;4823420;29;19958;-89
2022/03/05 01:18:26;;;;;;;28.93;15.17;;;-1.70;99.90;;;;;;4822947;29;20058;-89
2022/03/05 01:20:52;;;;;;;24.80;14.60;;;2.70;99.90;;;;;;4823796;29;20425;-88
2022/03/05 01:23:18;;;;;;;28.20;14.83;;;3.40;99.90;;;;;;4807010;29;20067;-90
2022/03/05 01:25:44;;;;;;;23.70;14.00;;;-0.20;99.90;;;;;;4807139;29;20106;-88
2022/03/05 01:28:10;;;;;;;25.87;13.73;;;0.50;99.90;;;;;;4823521;29;20058;-88
2022/03/05 01:30:36;;;;;;;29.57;14.17;;;0.10;99.90;;;;;;4806855;29;20421;-88
2022/03/05 01:33:01;;;;;;;26.87;14.17;;;-0.60;99.90;;;;;;4823689;29;20137;-88
2022/03/05 01:35:27;;;;;;;21.40;12.87;;;0.10;99.90;;;;;;4791182;29;20391;-88
2022/03/05 01:37:53;;;;;;;24.63;13.50;;;2.50;99.90;;;;;;4823829;29;20111;-88
2022/03/05 01:40:18;;;;;;;24.13;13.03;;;1.80;99.90;;;;;;4807394;29;20445;-89
2022/03/05 01:42:44;;;;;;;26.30;13.10;;;-0.40;99.90;;;;;;4807578;29;20073;-88
2022/03/05 01:45:11;;;;;;;25.00;13.80;;;-0.30;99.90;;;;;;4807134;29;20511;-88
2022/03/05 01:47:38;;;;;;;23.37;12.57;;;-1.20;99.90;;;;;;4822220;29;20167;-89
2022/03/05 01:50:05;;;;;;;24.98;11.90;;;-0.20;99.90;;;;;;4823072;29;20107;-89
2022/03/05 01:52:30;;;;;;;24.03;13.13;;;-0.20;99.90;;;;;;4806947;29;20077;-89
2022/03/05 01:54:56;;;;;;;27.40;12.20;;;-1.00;99.90;;;;;;4822786;29;20046;-88
2022/03/05 01:57:22;;;;;;;25.00;12.67;;;1.90;99.90;;;;;;4792139;29;20057;-87
2022/03/05 01:59:48;;;;;;;23.70;12.50;;;-0.60;99.90;;;;;;4822830;29;20530;-88
2022/03/05 02:02:14;;;;;;;22.73;12.67;;;0.00;99.90;;;;;;4806085;29;20061;-88
2022/03/05 02:04:40;;;;;;;23.00;13.00;;;1.40;99.90;;;;;;4806653;29;20090;-89
2022/03/05 02:07:06;;;;;;;25.23;12.67;;;-0.10;99.90;;;;;;4807105;29;20085;-89
2022/03/05 02:09:32;;;;;;;26.67;13.10;;;-0.30;99.90;;;;;;4822046;29;20046;-87
2022/03/05 02:11:58;;;;;;;27.00;13.33;;;0.30;99.90;;;;;;4807504;29;20050;-88
2022/03/05 02:14:23;;;;;;;28.50;12.03;;;-0.20;99.90;;;;;;4807157;29;20576;-87
2022/03/05 02:16:50;;;;;;;21.97;12.10;;;1.00;99.90;;;;;;4806822;29;20222;-88
2022/03/05 02:19:17;;;;;;;20.97;11.63;;;-0.40;99.90;;;;;;4806605;29;20064;-88
2022/03/05 02:21:46;;;;;;;22.13;11.77;;;-0.50;99.90;;;;;;4792001;29;20149;-88
2022/03/05 02:24:31;;;;;;;23.10;12.43;;;1.10;99.90;;;;;;4823425;29;20465;-88
2022/03/05 02:27:02;;;;;;;27.07;12.33;;;2.00;99.90;;;;;;4806727;29;20182;-88
2022/03/05 02:29:28;;;;;;;23.47;11.50;;;0.60;99.90;;;;;;4790960;29;20093;-88
2022/03/05 02:31:54;;;;;;;21.43;11.60;;;-0.30;99.90;;;;;;4821421;29;20063;-88
2022/03/05 02:34:24;;;;;;;22.40;12.03;;;2.30;99.90;;;;;;4821369;29;20085;-89
2022/03/05 02:36:50;;;;;;;27.03;12.00;;;;;;;;;;4822300;29;20064;-89
2022/03/05 02:39:16;;;;;;;24.63;12.70;;;1.10;99.90;;;;;;4822214;29;20065;-89
2022/03/05 02:41:43;;;;;;;22.10;11.43;;;;;;;;;;4806018;29;20058;-89
2022/03/05 02:44:09;;;;;;;23.33;11.73;;;-1.00;99.90;;;;;;4822438;29;20054;-89
2022/03/05 02:46:35;;;;;;;22.60;10.67;;;-0.80;99.90;;;;;;4790774;29;20058;-89
2022/03/05 02:49:03;;;;;;;22.00;11.50;;;-0.20;99.90;;;;;;4791196;29;20493;-88
2022/03/05 02:51:29;;;;;;;21.30;11.63;;;;;;;;;;4806058;29;20069;-90
2022/03/05 02:53:55;;;;;;;22.53;11.37;;;-0.30;99.90;;;;;;4805909;29;20058;-89
2022/03/05 02:56:21;;;;;;;23.60;11.67;;;-0.60;99.90;;;;;;4806897;29;20062;-89
2022/03/05 02:58:46;;;;;;;23.30;12.27;;;-0.80;99.90;;;;;;4806548;29;20226;-89
2022/03/05 03:01:12;;;;;;;22.73;11.70;;;-0.10;99.90;;;;;;4821424;29;20229;-88
2022/03/05 03:03:38;;;;;;;25.37;12.27;;;0.50;99.90;;;;;;4822832;29;20046;-90
2022/03/05 03:06:06;;;;;;;20.70;12.10;;;-0.10;99.90;;;;;;4806368;29;20093;-89
2022/03/05 03:08:32;;;;;;;21.97;11.70;;;;;;;;;;4791067;29;20058;-89
2022/03/05 03:11:00;;;;;;;22.63;11.93;;;-0.10;99.90;;;;;;4822304;29;20488;-88
2022/03/05 03:13:26;;;;;;;21.80;12.47;;;0.00;99.90;;;;;;4790886;29;20094;-89
2022/03/05 03:15:52;;;;;;;26.67;12.83;;;1.60;99.90;;;;;;4789887;29;20127;-88
2022/03/05 03:18:18;;;;;;;25.07;12.67;;;-0.20;99.90;;;;;;4805710;29;20129;-89
2022/03/05 03:20:44;;;;;;;23.63;11.80;;;0.10;99.90;;;;;;4805370;29;20422;-89
2022/03/05 03:23:10;;;;;;;21.37;12.03;;;;;;;;;;4805863;29;20094;-89
2022/03/05 03:25:39;;;;;;;22.50;12.90;;;0.50;99.90;;;;;;4805526;29;20100;-89
2022/03/05 03:28:06;;;;;;;25.50;12.37;;;2.00;99.90;;;;;;4790997;29;20054;-89
2022/03/05 03:30:32;;;;;;;22.87;11.63;;;;;;;;;;4821526;29;20054;-89
2022/03/05 03:32:58;;;;;;;24.43;13.40;;;;;;;;;;4799272;29;20102;-87
2022/03/05 03:35:25;;;;;;;21.07;11.83;;;;;;;;;;4805558;29;20054;-87
2022/03/05 03:37:51;;;;;;;22.63;12.37;;;1.40;99.90;;;;;;4805109;29;20048;-87
2022/03/05 03:40:18;;;;;;;24.63;12.40;;;0.40;99.90;;;;;;4805735;29;20062;-87
2022/03/05 03:42:45;;;;;;;22.45;12.45;;;0.80;99.90;;;;;;4821517;29;20054;-87
2022/03/05 03:45:12;;;;;;;26.58;12.32;;;-0.80;99.90;;;;;;4790843;29;20133;-88
2022/03/05 03:47:39;;;;;;;21.77;11.63;;;-0.80;99.90;;;;;;4790536;29;20058;-88
2022/03/05 03:50:06;;;;;;;21.73;12.00;;;-0.80;99.90;;;;;;4805912;29;20065;-88
2022/03/05 03:52:32;;;;;;;25.40;11.73;;;-0.40;99.90;;;;;;4821825;29;20058;-88
2022/03/05 03:54:59;;;;;;;24.87;12.10;;;0.50;99.90;;;;;;4790602;29;20066;-88
2022/03/05 03:57:24;;;;;;;22.93;11.67;;;0.40;99.90;;;;;;4805735;29;20062;-89
2022/03/05 03:59:52;;;;;;;22.47;12.53;;;-1.80;99.90;;;;;;4823550;29;20473;-88
2022/03/05 04:02:22;;;;;;;22.90;12.55;;;0.10;99.90;;;;;;4808762;29;20061;-88
2022/03/05 04:04:49;;;;;;;28.33;12.20;;;-1.00;99.90;;;;;;4794180;29;20062;-88
2022/03/05 04:09:59;;;;;;;24.10;12.17;;;-2.30;99.90;;;;;;4808914;29;20066;-88
2022/03/05 04:12:25;;;;;;;26.63;12.37;;;;;;;;;;4794052;29;20058;-87
2022/03/05 04:14:51;;;;;;;23.67;12.60;;;0.70;99.90;;;;;;4808895;29;20138;-87
2022/03/05 04:17:16;;;;;;;25.60;12.60;;;2.50;99.90;;;;;;4809059;29;20090;-88
2022/03/05 04:19:43;;;;;;;22.60;12.10;;;0.70;99.90;;;;;;4823744;29;20545;-88
2022/03/05 04:22:09;;;;;;;25.47;13.23;;;1.40;99.90;;;;;;4808861;29;20133;-88
2022/03/05 04:24:35;;;;;;;24.07;12.13;;;1.50;99.90;;;;;;4808420;29;20199;-88
2022/03/05 04:27:01;;;;;;;26.27;12.47;;;-1.50;99.90;;;;;;4808431;29;20077;-88
2022/03/05 04:29:26;;;;;;;26.80;13.00;;;-0.50;99.90;;;;;;4793012;29;20421;-88
2022/03/05 04:31:52;;;;;;;26.37;12.40;;;-1.10;99.90;;;;;;4824446;29;20065;-88
2022/03/05 04:34:18;;;;;;;25.90;13.03;;;2.60;99.90;;;;;;4824487;29;20050;-88
2022/03/05 04:36:44;;;;;;;23.37;11.87;;;0.80;99.90;;;;;;4824133;29;20129;-88
2022/03/05 04:39:10;;;;;;;22.40;11.80;;;0.70;99.90;;;;;;4808233;29;20422;-88
2022/03/05 04:41:36;;;;;;;20.83;11.93;;;-0.50;99.90;;;;;;4808122;29;20416;-88
2022/03/05 04:44:03;;;;;;;24.40;12.80;;;0.50;99.90;;;;;;4807325;29;20097;-88
2022/03/05 04:46:28;;;;;;;23.60;12.63;;;-0.10;99.90;;;;;;4808023;29;20411;-88
2022/03/05 04:48:54;;;;;;;23.77;12.60;;;1.40;99.90;;;;;;4807652;29;20055;-88
2022/03/05 04:51:20;;;;;;;25.53;12.63;;;2.60;99.90;;;;;;4807865;29;20097;-87
2022/03/05 04:53:46;;;;;;;21.53;11.77;;;1.20;99.90;;;;;;4807600;29;20061;-88
2022/03/05 04:56:11;;;;;;;27.20;13.23;;;-0.20;99.90;;;;;;4807671;29;20055;-89
2022/03/05 04:58:37;;;;;;;23.87;12.23;;;0.00;99.90;;;;;;4792835;29;20062;-88
2022/03/05 05:01:03;;;;;;;24.50;11.77;;;-0.30;99.90;;;;;;4807150;29;20081;-88
2022/03/05 05:03:29;;;;;;;29.40;13.70;;;-0.30;99.90;;;;;;4808106;29;20408;-88
2022/03/05 05:05:56;;;;;;;24.63;13.23;;;0.70;99.90;;;;;;4807053;29;20080;-88
2022/03/05 05:08:21;;;;;;;24.07;12.63;;;-0.20;99.90;;;;;;4792499;29;20077;-88
2022/03/05 05:10:47;;;;;;;26.83;13.53;;;-1.60;99.90;;;;;;4791254;29;20508;-88
2022/03/05 05:13:13;;;;;;;29.13;13.37;;;0.80;99.90;;;;;;4823868;29;20507;-88
2022/03/05 05:15:39;;;;;;;22.67;12.23;;;-0.20;99.90;;;;;;4821097;29;20074;-88
2022/03/05 05:18:04;;;;;;;27.77;13.10;;;0.00;99.90;;;;;;4821946;29;20051;-88
2022/03/05 05:20:30;;;;;;;25.80;12.67;;;1.20;99.90;;;;;;4823847;29;20508;-87
2022/03/05 05:22:56;;;;;;;24.27;13.07;;;-0.60;99.90;;;;;;4822411;29;20357;-87
2022/03/05 05:25:22;;;;;;;22.43;11.70;;;0.60;99.90;;;;;;4823662;29;20085;-88
2022/03/05 05:27:48;;;;;;;24.63;13.00;;;;;;;;;;4791067;29;20094;-88
2022/03/05 05:30:14;;;;;;;23.53;12.50;;;1.00;99.90;;;;;;4802477;29;20054;-88
2022/03/05 05:32:40;;;;;;;25.07;12.53;;;2.10;99.90;;;;;;4823099;29;20122;-88
2022/03/05 05:35:07;;;;;;;27.67;12.60;;;-1.00;99.90;;;;;;4806529;29;20054;-88
2022/03/05 05:37:33;;;;;;;29.67;13.32;;;;;;;;;;4823271;29;20069;-88
2022/03/05 05:40:00;;;;;;;24.87;12.73;;;0.70;99.90;;;;;;4806641;29;20141;-88
2022/03/05 05:42:26;;;;;;;21.87;12.17;;;0.60;99.90;;;;;;4826109;29;20050;-89
2022/03/05 05:44:52;;;;;;;24.33;12.17;;;;;;;;;;4809968;29;20066;-90
2022/03/05 05:47:18;;;;;;;23.43;11.97;;;;;;;;;;4810356;29;20054;-90
2022/03/05 05:49:44;;;;;;;22.60;12.97;;;0.00;99.90;;;;;;4827296;29;20050;-89
2022/03/05 05:52:10;;;;;;;27.23;11.77;;;1.70;99.90;;;;;;4835553;29;20065;-89
2022/03/05 05:54:36;;;;;;;23.20;12.73;;;-0.30;99.90;;;;;;4844400;29;20043;-86
2022/03/05 05:57:02;;;;;;;24.80;12.67;;;2.10;99.90;;;;;;4818081;29;20067;-89
2022/03/05 05:59:28;;;;;;;21.77;12.33;;;0.00;99.90;;;;;;4821764;29;20050;-86
2022/03/05 06:01:54;;;;;;;22.50;12.30;;;-0.80;99.90;;;;;;4822443;29;20510;-87
2022/03/05 06:04:20;;;;;;;19.60;11.77;;;0.80;99.90;;;;;;4790790;29;20133;-86
2022/03/05 06:06:46;;;;;;;25.27;11.70;;;1.40;99.90;;;;;;4821731;29;20357;-87
2022/03/05 06:09:11;;;;;;;25.17;12.90;;;-0.10;99.90;;;;;;4791677;29;20058;-87
2022/03/05 06:11:37;;;;;;;22.37;12.60;;;0.00;99.90;;;;;;4806331;29;20156;-88
2022/03/05 06:14:05;;;;;;;20.57;11.97;;;-1.10;99.90;;;;;;4820875;29;20053;-88
2022/03/05 06:16:31;;;;;;;;;;;1.70;99.90;;;;;;4807685;29;20050;-88
2022/03/05 06:18:57;;;;;;;22.37;11.37;;;3.50;99.90;;;;;;4807010;29;19972;-88
2022/03/05 06:21:23;;;;;;;23.10;11.87;;;0.00;99.90;;;;;;4791559;29;20102;-88
2022/03/05 06:23:49;;;;;;;22.97;11.93;;;0.90;99.90;;;;;;4825074;29;20054;-90
2022/03/05 06:26:15;;;;;;;20.47;11.20;;;0.40;99.90;;;;;;4824937;29;20054;-84
2022/03/05 06:28:41;;;;;;;22.60;11.87;;;-0.60;99.90;;;;;;4824099;29;20170;-89
2022/03/05 06:31:06;;;;;;;23.40;12.27;;;-0.10;99.90;;;;;;4806765;29;20146;-88
2022/03/05 06:33:32;;;;;;;25.20;12.67;;;-0.70;99.90;;;;;;4792147;29;20115;-88
2022/03/05 06:35:58;;;;;;;21.97;11.93;;;-1.00;99.90;;;;;;4822466;29;20417;-88
2022/03/05 06:38:24;;;;;;;24.57;11.50;;;-0.70;99.90;;;;;;4806168;29;20050;-87
2022/03/05 06:40:50;;;;;;;22.20;11.57;;;-0.60;99.90;;;;;;4806154;29;20522;-86
2022/03/05 06:43:16;;;;;;;23.67;11.63;;;2.20;99.90;;;;;;4805722;29;20051;-87
2022/03/05 06:45:43;;;;;;;27.27;11.57;;;-0.90;99.90;;;;;;4822684;29;20065;-88
2022/03/05 06:48:09;;;;;;;25.00;11.73;;;-1.30;99.90;;;;;;4790979;29;20357;-86
2022/03/05 06:50:35;;;;;;;27.20;11.60;;;-0.40;99.90;;;;;;4823987;29;20198;-88
2022/03/05 06:53:01;;;;;;;21.37;12.10;;;0.30;99.90;;;;;;4823547;29;20103;-87
2022/03/05 06:55:27;;;;;;;21.97;11.33;;;;;;;;;;4823738;29;20054;-88
2022/03/05 06:57:53;;;;;;;20.73;10.87;;;-0.20;99.90;;;;;;4822503;29;20050;-87
2022/03/05 07:00:20;;;;;;;26.37;11.47;;;1.60;99.90;;;;;;4806880;29;20385;-88
2022/03/05 07:02:47;;;;;;;24.08;11.95;;;;;;;;;;4791213;29;20063;-87
2022/03/05 07:05:13;;;;;;;25.73;11.87;;;;;;;;;;4820837;29;20274;-87
2022/03/05 07:07:39;;;;;;;22.40;11.73;;;-2.10;99.90;;;;;;4806185;29;20051;-88
2022/03/05 07:10:06;;;;;;;21.73;11.33;;;0.60;99.90;;;;;;4807682;29;20054;-87
2022/03/05 07:12:32;;;;;;;24.80;12.10;;;1.10;99.90;;;;;;4806589;29;20054;-88
2022/03/05 07:14:58;;;;;;;24.67;11.73;;;-2.20;99.90;;;;;;4805783;29;20073;-88
2022/03/05 07:17:25;;;;;;;28.03;11.50;;;-0.70;99.90;;;;;;4821475;29;20489;-87
2022/03/05 07:19:51;;;;;;;24.57;12.00;;;0.10;99.90;;;;;;4823067;29;20137;-88
2022/03/05 07:22:18;;;;;;;24.37;12.00;;;1.90;99.90;;;;;;4823047;29;20145;-88
2022/03/05 07:24:43;;;;;;;24.37;10.87;;;-0.20;99.90;;;;;;4823420;29;20392;-87
2022/03/05 07:27:09;;;;;;;23.40;11.80;;;-0.60;99.90;;;;;;4820771;29;20053;-87
2022/03/05 07:29:36;;;;;;;21.73;11.17;;;0.40;99.90;;;;;;4821743;29;20057;-88
2022/03/05 07:32:03;;;;;;;22.83;11.93;;;;;;;;;;4804517;29;20085;-88
2022/03/05 07:34:30;;;;;;;24.02;11.32;;;0.10;99.90;;;;;;4809959;29;20530;-87
2022/03/05 07:36:57;;;;;;;24.30;11.83;;;0.60;99.90;;;;;;4827829;29;20199;-88
2022/03/05 07:39:23;;;;;;;23.93;11.90;;;1.60;99.90;;;;;;4797087;29;20141;-87
2022/03/05 07:41:49;;;;;;;23.57;11.27;;;-0.50;99.90;;;;;;4826843;29;20320;-87
2022/03/05 07:44:16;;;;;;;20.60;10.80;;;;;;;;;;4826719;29;20046;-87
2022/03/05 07:46:41;;;;;;;23.77;11.37;;;0.60;99.90;;;;;;4825810;29;20089;-87
2022/03/05 07:49:07;;;;;;;26.53;11.67;;;1.90;99.90;;;;;;4794092;29;20210;-87
2022/03/05 07:51:34;;;;;;;21.90;11.87;;;3.60;99.90;;;;;;4808311;29;20046;-87
2022/03/05 07:54:00;;;;;;;28.87;12.43;;;1.20;99.90;;;;;;4793046;29;20054;-87
2022/03/05 07:56:26;;;;;;;18.63;11.20;;;3.60;99.90;;;;;;4808915;29;20422;-87
2022/03/05 07:58:52;;;;;;;21.47;10.57;;;2.10;99.90;;;;;;4793363;29;20092;-87
2022/03/05 08:01:18;;;;;;;25.10;12.17;;;1.00;99.90;;;;;;4824570;29;20453;-87
2022/03/05 08:03:43;;;;;;;26.60;11.40;;;1.00;99.90;;;;;;4823631;29;20058;-87
2022/03/05 08:06:09;;;;;;;24.67;12.20;;;1.20;99.90;;;;;;4824929;29;20103;-87
2022/03/05 08:08:35;;;;;;;23.27;12.00;;;1.10;99.90;;;;;;4808973;29;20514;-87
2022/03/05 08:11:02;;;;;;;25.73;13.40;;;4.00;99.90;;;;;;4823538;29;20541;-87
2022/03/05 08:13:29;;;;;;;26.08;12.27;;;3.30;99.90;;;;;;4824073;29;20077;-86
2022/03/05 08:15:55;;;;;;;26.60;14.13;;;1.10;99.90;;;;;;4808398;29;20047;-87
2022/03/05 08:18:21;;;;;;;29.47;13.03;;;1.40;99.90;;;;;;4807819;29;20295;-87
2022/03/05 08:20:48;;;;;;;26.43;12.70;;;;;;;;;;4824500;29;20068;-87
2022/03/05 08:23:14;;;;;;;24.00;12.57;;;1.70;99.90;;;;;;4823994;29;20085;-87
2022/03/05 08:25:40;;;;;;;29.40;13.23;;;3.80;99.90;;;;;;4823566;29;20069;-89
2022/03/05 08:28:06;;;;;;;24.63;11.90;;;;;;;;;;4824488;29;20069;-88
2022/03/05 08:30:32;;;;;;;23.43;13.23;;;1.80;99.90;;;;;;4824857;29;20129;-89
2022/03/05 08:32:58;;;;;;;26.63;12.10;;;4.30;99.90;;;;;;4793642;29;20601;-88
2022/03/05 08:35:25;;;;;;;22.43;12.67;;;;;;;;;;4824373;29;20046;-87
2022/03/05 08:37:51;;;;;;;26.60;13.23;;;2.10;99.90;;;;;;4809409;29;20054;-89
2022/03/05 08:40:17;;;;;;;27.67;13.20;;;4.10;99.90;;;;;;4823628;29;20056;-88
2022/03/05 08:42:45;;;;;;;31.53;14.80;;;2.20;99.90;;;;;;4792649;29;20431;-88
2022/03/05 08:45:11;;;;;;;26.95;14.80;;;1.50;99.90;;;;;;4823080;29;20046;-89
2022/03/05 08:47:38;;;;;;;27.03;14.10;;;;;;;;;;4823810;29;20065;-88
2022/03/05 08:50:05;;;;;;;25.13;13.27;;;3.70;54.30;;;;;;4824179;29;20500;-91
2022/03/05 08:52:36;;;;;;;25.02;12.95;;;4.80;27.10;;;;;;4809718;29;20090;-89
2022/03/05 08:55:10;;;;;;;23.87;12.57;;;6.80;29.60;;;;;;4827601;29;20050;-90
2022/03/05 08:57:37;;;;;;;24.00;12.73;;;;;;;;;;4827408;29;20070;-89
2022/03/05 09:00:06;;;;;;;24.92;11.98;;;9.00;1.00;;;;;;4809363;29;20099;-88
2022/03/05 09:02:31;;;;;;;22.80;11.95;;;9.90;1.00;;;;;;4794257;29;20407;-90
2022/03/05 09:04:58;;;;;;;25.73;12.48;;;;;;;;;;4824832;29;20053;-89
2022/03/05 09:07:24;;;;;;;23.08;12.43;;;7.90;1.00;;;;;;4810358;29;20054;-90
2022/03/05 09:09:49;;;;;;;23.13;11.75;;;10.70;1.00;;;;;;4794937;29;20500;-88
2022/03/05 09:12:15;;;;;;;26.27;11.93;;;11.50;1.00;;;;;;4824481;29;20042;-87
2022/03/05 09:14:41;;;;;;;27.58;13.65;;;10.40;1.00;;;;;;4793167;29;20514;-88
2022/03/05 09:17:07;;;;;;;23.13;12.07;;;12.30;1.00;;;;;;4823627;29;20058;-89
2022/03/05 09:19:32;;;;;;;23.67;12.05;;;13.30;1.00;;;;;;4825259;29;20409;-89
2022/03/05 09:21:58;;;;;;;23.75;12.40;;;12.20;1.00;;;;;;4808689;29;20054;-91
2022/03/05 09:24:24;;;;;;;22.13;12.45;;;13.10;1.00;;;;;;4808346;29;20137;-89
2022/03/05 09:26:50;;;;;;;25.00;12.55;;;12.20;1.00;;;;;;4794016;29;20051;-88
2022/03/05 09:29:16;;;;;;;23.30;12.52;;;10.80;1.00;;;;;;4823417;29;20054;-91
2022/03/05 09:31:42;;;;;;;23.60;12.57;;;11.10;1.00;;;;;;4825148;29;20508;-89
2022/03/05 09:34:08;;;;;;;21.90;11.95;;;11.90;1.00;;;;;;4807977;29;20065;-87
2022/03/05 09:36:34;;;;;;;22.30;12.43;;;12.90;1.00;;;;;;4807245;29;20054;-88
2022/03/05 09:39:00;;;;;;;24.35;12.55;;;12.70;1.00;;;;;;4823857;29;20060;-89
2022/03/05 09:41:26;;;;;;;24.08;12.85;;;12.60;1.00;;;;;;4792809;29;20460;-89
2022/03/05 09:43:51;;;;;;;21.88;12.57;;;12.90;1.00;;;;;;4799970;29;20054;-89
2022/03/05 09:46:22;;;;;;;22.88;12.75;;;12.20;1.00;;;;;;4823568;29;20038;-90
2022/03/05 09:48:52;;;;;;;23.10;13.05;;;12.20;1.00;;;;;;4808510;29;20133;-91
2022/03/05 09:51:20;;;;;;;20.70;12.15;;;13.30;1.00;;;;;;4793446;29;20054;-91
2022/03/05 09:53:46;;;;;;;;;;;14.00;1.00;;;;;;4824489;29;20404;-90
2022/03/05 09:56:11;;;;;;;23.27;12.23;;;14.50;1.00;;;;;;4807312;29;19924;-91
2022/03/05 09:58:37;;;;;;;19.13;11.52;;;14.90;1.00;;;;;;4808410;29;20058;-92
2022/03/05 10:01:03;;;;;;;23.10;12.23;;;15.40;1.00;;;;;;4808630;29;20084;-90
2022/03/05 10:03:29;;;;;;;22.55;12.40;;;15.60;1.00;;;;;;4806649;29;20125;-89
2022/03/05 10:06:15;;;;;;;24.73;12.73;;;14.00;1.00;;;;;;4821902;29;20400;-91
2022/03/05 10:08:40;;;;;;;23.38;13.15;;;12.90;1.00;;;;;;4808064;29;20070;-89
2022/03/05 10:11:09;;;;;;;25.90;13.60;;;13.30;1.00;;;;;;4808355;29;20153;-92
2022/03/05 10:13:36;;;;;;;24.33;13.00;;;13.10;1.00;;;;;;4823589;29;20492;-90
2022/03/05 10:16:04;;;;;;;25.58;14.00;;;11.00;1.00;;;;;;4824311;29;20459;-93
2022/03/05 10:18:39;;;;;;;25.10;12.93;;;10.40;1.00;;;;;;4820419;29;20362;-91
2022/03/05 10:21:09;;;;;;;25.35;13.80;;;9.70;1.00;;;;;;4806456;29;20079;-89
2022/03/05 10:23:40;;;;;;;24.50;13.85;;;10.60;1.00;;;;;;4789896;29;20089;-93
2022/03/05 10:26:07;;;;;;;27.00;13.77;;;8.60;1.00;;;;;;4804132;29;20134;-89
2022/03/05 10:28:34;;;;;;;29.80;15.13;;;8.80;1.00;;;;;;4804132;29;20129;-92
2022/03/05 10:31:04;;;;;;;26.33;14.30;;;9.80;1.00;;;;;;4804311;29;20090;-91
2022/03/05 10:33:44;;;;;;;28.83;14.50;;;5.40;1.00;;;;;;4803115;29;20485;-91
2022/03/05 10:36:21;;;;;;;26.75;14.55;;;7.90;1.00;;;;;;4804430;29;20134;-91
2022/03/05 10:38:51;;;;;;;32.50;16.10;;;8.90;1.00;;;;;;4773294;29;20495;-90
2022/03/05 10:41:22;;;;;;;27.65;14.18;;;7.20;1.00;;;;;;4803251;29;20077;-90
2022/03/05 10:44:03;;;;;;;27.80;14.18;;;9.20;1.00;;;;;;4788615;29;20051;-91
2022/03/05 10:46:59;;;;;;;29.05;15.15;;;7.10;1.00;;;;;;4804235;29;20151;-90
2022/03/05 10:49:31;;;;;;;26.25;14.38;;;7.50;1.00;;;;;;4774685;29;20062;-91
2022/03/05 10:52:00;;;;;;;28.13;15.60;;;8.20;1.00;;;;;;4789557;29;20061;-89
2022/03/05 10:54:40;;;;;;;29.70;15.63;;;8.50;1.00;;;;;;4787828;29;20138;-89
2022/03/05 10:57:22;;;;;;;31.98;15.98;;;7.90;1.00;;;;;;4804500;29;20262;-92
2022/03/05 10:59:50;;;;;;;28.95;15.00;;;7.90;1.00;;;;;;4804964;29;20054;-90
2022/03/05 11:02:21;;;;;;;28.10;15.75;;;6.20;1.00;;;;;;4772808;29;20062;-90
2022/03/05 11:04:48;;;;;;;27.85;15.93;;;8.00;1.00;;;;;;4773766;29;20054;-91
2022/03/05 11:07:16;;;;;;;30.02;16.10;;;6.90;1.00;;;;;;4775320;29;20552;-90
2022/03/05 11:09:42;;;;;;;25.73;14.18;;;10.70;1.00;;;;;;4791920;29;20054;-91
2022/03/05 11:12:14;;;;;;;32.45;15.15;;;9.80;1.00;;;;;;4776605;29;20477;-90
2022/03/05 11:14:43;;;;;;;26.45;15.00;;;10.50;1.00;;;;;;4805833;29;20107;-92
2022/03/05 11:17:10;;;;;;;32.25;15.93;;;11.90;1.00;;;;;;4776758;29;20409;-90
2022/03/05 11:19:37;;;;;;;25.50;13.98;;;13.20;1.00;;;;;;4801025;29;20065;-89
2022/03/05 11:22:03;;;;;;;27.08;15.20;;;13.70;1.00;;;;;;4781376;29;20070;-90
2022/03/05 11:24:29;;;;;;;26.85;14.95;;;;;;;;;;4810353;29;20065;-90
2022/03/05 11:26:55;;;;;;;27.50;14.38;;;14.00;1.00;;;;;;4810101;29;20426;-91
2022/03/05 11:29:27;;;;;;;29.65;15.95;;;14.50;1.00;;;;;;4809599;29;20349;-91
2022/03/05 11:32:08;;;;;;;27.00;14.77;;;14.70;1.00;;;;;;4826188;29;20537;-89
2022/03/05 11:34:43;;;;;;;25.23;14.35;;;13.60;1.00;;;;;;4810956;29;20315;-89
2022/03/05 11:37:29;;;;;;;26.98;15.35;;;13.50;1.00;;;;;;4796603;29;20455;-92
2022/03/05 11:39:55;;;;;;;26.75;15.05;;;14.40;1.00;;;;;;4810599;29;20058;-90
2022/03/05 11:42:32;;;;;;;26.55;15.05;;;14.80;1.00;;;;;;4795491;29;20046;-90
2022/03/05 11:45:01;;;;;;;25.75;15.18;;;14.90;1.00;;;;;;4826704;29;20054;-91
2022/03/05 11:47:31;;;;;;;30.73;16.17;;;15.30;1.00;;;;;;4810832;29;20441;-91
2022/03/05 11:50:00;;;;;;;24.33;14.57;;;15.30;1.00;;;;;;4827420;29;20058;-91
2022/03/05 11:52:43;;;;;;;22.40;14.05;;;15.20;1.00;;;;;;4811407;29;20061;-91
2022/03/05 11:55:18;;;;;;;24.90;14.32;;;15.90;1.00;;;;;;4810598;29;20153;-93
2022/03/05 11:58:03;;;;;;;27.83;15.23;;;14.70;1.00;;;;;;4795995;29;20082;-94
2022/03/05 12:00:32;;;;;;;28.02;16.05;;;14.00;1.00;;;;;;4810438;29;20046;-92
2022/03/05 12:03:00;;;;;;;28.98;15.55;;;13.10;1.00;;;;;;4794969;29;20489;-93
2022/03/05 12:05:38;;;;;;;29.20;15.57;;;12.90;1.00;;;;;;4826745;29;20096;-91
2022/03/05 12:08:09;;;;;;;30.70;16.17;;;11.40;1.00;;;;;;4811055;29;20051;-93
2022/03/05 12:10:40;;;;;;;27.10;15.85;;;10.10;1.00;;;;;;4810354;29;20061;-91
2022/03/05 12:13:08;;;;;;;30.02;16.08;;;9.50;1.00;;;;;;4826011;29;20297;-91
2022/03/05 12:15:35;;;;;;;;;;;9.50;1.00;;;;;;4809171;29;20405;-90
2022/03/05 12:18:02;;;;;;;30.17;16.13;;;9.60;1.00;;;;;;4797096;29;19950;-92
2022/03/05 12:20:35;;;;;;;28.70;15.88;;;11.20;1.00;;;;;;4791629;29;20063;-94
2022/03/05 12:23:04;;;;;;;33.28;15.77;;;11.40;1.00;;;;;;4808000;29;20061;-92
2022/03/05 12:25:38;;;;;;;32.15;17.30;;;11.30;1.00;;;;;;4780476;29;20086;-94
2022/03/05 12:28:14;;;;;;;30.45;16.52;;;11.20;1.00;;;;;;4780219;29;20129;-90
2022/03/05 12:30:40;;;;;;;30.60;16.80;;;9.90;1.00;;;;;;4792805;29;20051;-90
2022/03/05 12:33:09;;;;;;;29.58;16.60;;;10.80;1.00;;;;;;4776400;29;20062;-89
2022/03/05 12:35:35;;;;;;;29.80;16.05;;;10.00;1.00;;;;;;4808043;29;20050;-90
2022/03/05 12:38:02;;;;;;;31.42;16.52;;;9.60;1.00;;;;;;4792600;29;20065;-90
2022/03/05 12:40:31;;;;;;;30.33;17.30;;;9.40;1.00;;;;;;4776537;29;20063;-90
2022/03/05 12:42:57;;;;;;;32.70;17.02;;;8.60;1.00;;;;;;4792298;29;20063;-90
2022/03/05 12:45:26;;;;;;;32.67;18.23;;;9.70;1.00;;;;;;4777072;29;20531;-90
2022/03/05 12:47:57;;;;;;;32.45;17.70;;;8.40;1.00;;;;;;4777270;29;20051;-90